createdAt,value
2023-04-26T00:00:36.443Z,3.80
2023-04-26T00:03:40.525Z,3.80
2023-04-26T00:06:42.488Z,3.80
2023-04-26T00:09:44.757Z,3.70
2023-04-26T00:12:46.390Z,3.70
2023-04-26T00:15:48.029Z,3.70
2023-04-26T00:18:50.247Z,3.70
2023-04-26T00:21:52.084Z,3.70
2023-04-26T00:24:53.794Z,3.70
2023-04-26T00:27:55.837Z,3.60
2023-04-26T00:30:57.895Z,3.60
2023-04-26T00:33:59.656Z,3.60
2023-04-26T00:37:02.921Z,3.50
2023-04-26T00:40:06.229Z,3.50
2023-04-26T00:43:08.390Z,3.50
2023-04-26T00:46:10.523Z,3.50
2023-04-26T00:49:17.272Z,3.50
2023-04-26T00:52:19.153Z,3.40
2023-04-26T00:55:22.910Z,3.40
2023-04-26T00:58:25.707Z,3.30
2023-04-26T01:01:28.320Z,3.30
2023-04-26T01:04:30.901Z,3.30
2023-04-26T01:07:33.408Z,3.30
2023-04-26T01:10:35.736Z,3.30
2023-04-26T01:13:38.449Z,3.30
2023-04-26T01:16:40.857Z,3.30
2023-04-26T01:19:50.032Z,3.30
2023-04-26T01:22:52.119Z,3.30
2023-04-26T01:25:56.201Z,3.30
2023-04-26T01:28:58.758Z,3.30
2023-04-26T01:32:00.403Z,3.20
2023-04-26T01:35:02.591Z,3.20
2023-04-26T01:38:04.398Z,3.10
2023-04-26T01:41:06.181Z,3.10
2023-04-26T01:44:07.868Z,3.10
2023-04-26T01:47:09.572Z,3.00
2023-04-26T01:50:11.498Z,3.00
2023-04-26T01:53:13.294Z,3.00
2023-04-26T01:56:14.963Z,3.00
2023-04-26T01:59:16.696Z,2.90
2023-04-26T02:02:18.876Z,2.90
2023-04-26T02:05:20.731Z,2.90
2023-04-26T02:08:22.419Z,2.90
2023-04-26T02:11:24.604Z,2.90
2023-04-26T02:14:26.645Z,2.90
2023-04-26T02:17:29.201Z,2.90
2023-04-26T02:20:31.088Z,2.90
2023-04-26T02:23:32.997Z,2.80
2023-04-26T02:26:34.698Z,2.80
2023-04-26T02:29:43.572Z,2.80
2023-04-26T02:32:46.145Z,2.80
2023-04-26T02:35:48.189Z,2.80
2023-04-26T02:38:49.863Z,2.70
2023-04-26T02:41:51.580Z,2.70
2023-04-26T02:44:53.215Z,2.70
2023-04-26T02:47:54.914Z,2.60
2023-04-26T02:50:57.200Z,2.60
2023-04-26T02:53:59.075Z,2.60
2023-04-26T02:57:00.958Z,2.60
2023-04-26T03:00:02.870Z,2.60
2023-04-26T03:03:04.742Z,2.50
2023-04-26T03:06:06.922Z,2.50
2023-04-26T03:09:08.862Z,2.50
2023-04-26T03:12:10.522Z,2.50
2023-04-26T03:15:12.174Z,2.40
2023-04-26T03:18:13.868Z,2.40
2023-04-26T03:21:15.592Z,2.40
2023-04-26T03:24:17.546Z,2.30
2023-04-26T03:27:19.262Z,2.30
2023-04-26T03:30:20.972Z,2.30
2023-04-26T03:33:22.759Z,2.30
2023-04-26T03:36:24.526Z,2.20
2023-04-26T03:39:33.260Z,2.30
2023-04-26T03:42:35.040Z,2.30
2023-04-26T03:45:37.145Z,2.20
2023-04-26T03:48:38.878Z,2.20
2023-04-26T03:51:40.529Z,2.20
2023-04-26T03:54:42.219Z,2.20
2023-04-26T03:57:43.883Z,2.20
2023-04-26T04:00:46.071Z,2.20
2023-04-26T04:03:48.001Z,2.10
2023-04-26T04:06:49.822Z,2.20
2023-04-26T04:09:51.808Z,2.10
2023-04-26T04:12:54.036Z,2.10
2023-04-26T04:15:55.775Z,2.20
2023-04-26T04:18:57.507Z,2.20
2023-04-26T04:21:59.129Z,2.10
2023-04-26T04:25:00.838Z,2.20
2023-04-26T04:28:03.492Z,2.10
2023-04-26T04:31:05.262Z,2.20
2023-04-26T04:34:06.906Z,2.20
2023-04-26T04:37:08.838Z,2.20
2023-04-26T04:40:11.766Z,2.30
2023-04-26T04:43:14.580Z,2.30
2023-04-26T04:46:16.295Z,2.30
2023-04-26T04:49:18.809Z,2.40
2023-04-26T04:52:23.202Z,2.50
2023-04-26T04:55:24.935Z,2.50
2023-04-26T04:58:26.626Z,2.50
2023-04-26T05:01:28.286Z,2.60
2023-04-26T05:04:31.956Z,2.60
2023-04-26T05:07:34.400Z,2.60
2023-04-26T05:10:36.424Z,2.70
2023-04-26T05:13:38.072Z,2.70
2023-04-26T05:16:39.763Z,2.80
2023-04-26T05:19:41.541Z,2.90
2023-04-26T05:22:43.335Z,2.90
2023-04-26T05:25:45.450Z,3.00
2023-04-26T05:28:47.092Z,3.00
2023-04-26T05:32:06.335Z,3.20
2023-04-26T05:35:08.886Z,3.50
2023-04-26T05:38:10.550Z,4.00
2023-04-26T05:41:12.214Z,4.80
2023-04-26T05:44:17.207Z,5.80
2023-04-26T05:47:18.867Z,7.10
2023-04-26T05:50:20.716Z,8.10
2023-04-26T05:53:22.427Z,8.60
2023-04-26T05:56:25.667Z,9.40
2023-04-26T05:59:32.734Z,10.10
2023-04-26T06:02:34.593Z,10.70
2023-04-26T06:05:41.295Z,11.00
2023-04-26T06:08:43.603Z,11.20
2023-04-26T06:11:45.311Z,11.20
2023-04-26T06:14:46.960Z,11.40
2023-04-26T06:17:48.659Z,11.20
2023-04-26T06:20:52.272Z,11.10
2023-04-26T06:24:50.940Z,11.20
2023-04-26T06:27:52.832Z,11.40
2023-04-26T06:30:54.568Z,12.00
2023-04-26T06:33:56.413Z,12.70
2023-04-26T06:36:58.071Z,13.10
2023-04-26T06:39:59.716Z,13.30
2023-04-26T06:43:01.399Z,13.30
2023-04-26T06:46:03.227Z,13.20
2023-04-26T06:49:05.011Z,13.20
2023-04-26T06:52:08.239Z,13.10
2023-04-26T06:55:11.362Z,13.30
2023-04-26T06:58:13.006Z,13.40
2023-04-26T07:01:29.871Z,13.60
2023-04-26T07:04:31.702Z,13.50
2023-04-26T07:07:33.585Z,13.20
2023-04-26T07:10:35.310Z,13.00
2023-04-26T07:13:40.502Z,13.00
2023-04-26T07:16:42.167Z,13.50
2023-04-26T07:19:43.822Z,13.60
2023-04-26T07:22:47.117Z,14.20
2023-04-26T07:25:48.867Z,13.60
2023-04-26T07:28:54.153Z,13.50
2023-04-26T07:31:57.100Z,13.60
2023-04-26T07:34:58.802Z,13.70
2023-04-26T07:38:00.572Z,14.30
2023-04-26T07:41:02.241Z,14.30
2023-04-26T07:44:04.195Z,13.80
2023-04-26T07:47:06.078Z,13.10
2023-04-26T07:50:08.587Z,12.40
2023-04-26T07:53:10.367Z,12.40
2023-04-26T07:56:12.068Z,12.30
2023-04-26T07:59:13.747Z,12.30
2023-04-26T08:02:16.879Z,12.60
2023-04-26T08:05:19.077Z,12.60
2023-04-26T08:08:22.420Z,12.50
2023-04-26T08:11:24.257Z,12.50
2023-04-26T08:14:26.115Z,12.40
2023-04-26T08:17:27.978Z,12.50
2023-04-26T08:20:29.908Z,12.80
2023-04-26T08:23:37.747Z,12.40
2023-04-26T08:26:39.420Z,11.80
2023-04-26T08:29:57.448Z,11.60
2023-04-26T08:32:59.225Z,11.50
2023-04-26T08:36:01.980Z,11.10
2023-04-26T08:39:04.841Z,10.40
2023-04-26T08:42:14.156Z,9.90
2023-04-26T08:45:16.563Z,9.50
2023-04-26T08:48:19.324Z,9.30
2023-04-26T08:51:21.799Z,9.20
2023-04-26T08:54:25.222Z,9.50
2023-04-26T08:57:27.390Z,10.00
2023-04-26T09:00:30.359Z,10.20
2023-04-26T09:03:33.176Z,9.90
2023-04-26T09:06:35.930Z,9.70
2023-04-26T09:09:42.271Z,9.30
2023-04-26T09:12:43.914Z,9.10
2023-04-26T09:15:48.356Z,9.10
2023-04-26T09:18:57.259Z,9.10
2023-04-26T09:21:59.009Z,9.30
2023-04-26T09:25:05.179Z,9.40
2023-04-26T09:28:21.405Z,9.40
2023-04-26T09:31:38.937Z,9.20
2023-04-26T09:34:47.222Z,9.10
2023-04-26T09:38:12.308Z,9.20
2023-04-26T09:41:14.657Z,9.00
2023-04-26T09:48:39.041Z,8.80
2023-04-26T09:51:40.756Z,8.60
2023-04-26T09:54:46.791Z,8.50
2023-04-26T09:57:49.093Z,8.40
2023-04-26T10:00:52.633Z,8.40
2023-04-26T10:04:11.737Z,8.50
2023-04-26T10:07:14.887Z,8.70
2023-04-26T10:10:17.836Z,9.00
2023-04-26T10:13:19.790Z,9.30
2023-04-26T10:16:21.643Z,9.40
2023-04-26T10:23:33.155Z,9.80
2023-04-26T10:26:57.480Z,10.10
2023-04-26T10:29:59.605Z,10.00
2023-04-26T10:33:01.530Z,10.00
2023-04-26T10:36:10.309Z,10.10
2023-04-26T10:39:23.222Z,10.20
2023-04-26T10:42:30.791Z,10.30
2023-04-26T10:45:32.569Z,10.10
2023-04-26T10:48:34.303Z,10.20
2023-04-26T10:51:36.002Z,10.40
2023-04-26T10:54:55.796Z,10.30
2023-04-26T10:57:57.532Z,10.10
2023-04-26T11:01:30.178Z,10.10
2023-04-26T11:04:51.253Z,10.00
2023-04-26T11:08:04.411Z,10.00
2023-04-26T11:11:09.977Z,10.10
2023-04-26T11:14:13.983Z,10.20
2023-04-26T11:17:15.859Z,10.30
2023-04-26T11:20:17.580Z,10.30
2023-04-26T11:23:19.861Z,10.20
2023-04-26T11:26:21.974Z,10.30
2023-04-26T11:29:41.608Z,10.30
2023-04-26T11:32:46.163Z,10.20
2023-04-26T11:35:48.661Z,10.20
2023-04-26T11:38:50.620Z,10.20
2023-04-26T11:41:56.509Z,10.20
2023-04-26T11:44:59.566Z,10.20
2023-04-26T11:48:03.346Z,10.00
2023-04-26T11:51:07.042Z,9.90
2023-04-26T11:54:09.062Z,9.80
2023-04-26T11:57:17.222Z,9.80
2023-04-26T12:00:20.034Z,9.80
2023-04-26T12:03:21.823Z,9.60
2023-04-26T12:06:43.835Z,9.60
2023-04-26T12:09:45.678Z,9.70
2023-04-26T12:12:51.687Z,9.70
2023-04-26T12:15:53.333Z,9.60
2023-04-26T12:18:59.117Z,9.50
2023-04-26T12:22:01.115Z,9.50
2023-04-26T12:25:06.979Z,9.30
2023-04-26T12:28:13.798Z,9.20
2023-04-26T12:31:15.869Z,9.30
2023-04-26T12:34:17.555Z,9.30
2023-04-26T12:37:19.219Z,9.50
2023-04-26T12:40:21.022Z,9.70
2023-04-26T12:43:24.081Z,9.80
2023-04-26T12:46:26.139Z,9.80
2023-04-26T12:49:29.567Z,9.70
2023-04-26T12:52:32.205Z,9.80
2023-04-26T12:55:33.942Z,9.90
2023-04-26T12:58:35.878Z,9.90
2023-04-26T13:01:37.614Z,10.00
2023-04-26T13:04:41.286Z,10.10
2023-04-26T13:07:44.709Z,10.00
2023-04-26T13:10:46.466Z,9.90
2023-04-26T13:13:49.448Z,9.90
2023-04-26T13:16:52.355Z,9.90
2023-04-26T13:19:54.254Z,9.80
2023-04-26T13:22:55.901Z,9.90
2023-04-26T13:25:57.543Z,10.00
2023-04-26T13:28:59.529Z,10.10
2023-04-26T13:32:01.970Z,10.10
2023-04-26T13:35:22.864Z,10.10
2023-04-26T13:38:26.220Z,10.00
2023-04-26T13:41:33.244Z,10.00
2023-04-26T13:44:35.240Z,10.10
2023-04-26T13:47:37.272Z,10.00
2023-04-26T13:50:39.174Z,9.80
2023-04-26T13:53:40.852Z,9.90
2023-04-26T13:56:42.539Z,9.80
2023-04-26T13:59:44.188Z,9.70
2023-04-26T14:02:46.037Z,9.60
2023-04-26T14:05:47.801Z,9.60
2023-04-26T14:08:49.657Z,9.60
2023-04-26T14:12:06.536Z,9.70
2023-04-26T14:15:09.801Z,9.60
2023-04-26T14:18:11.536Z,9.70
2023-04-26T14:21:13.261Z,9.70
2023-04-26T14:24:15.074Z,9.70
2023-04-26T14:27:17.038Z,9.70
2023-04-26T14:30:18.671Z,9.70
2023-04-26T14:33:21.367Z,9.80
2023-04-26T14:36:24.290Z,9.80
2023-04-26T14:39:42.881Z,9.90
2023-04-26T14:43:21.404Z,9.80
2023-04-26T14:46:23.246Z,9.70
2023-04-26T14:49:43.431Z,9.60
2023-04-26T14:52:45.207Z,9.70
2023-04-26T14:55:53.674Z,9.60
2023-04-26T14:58:56.225Z,9.60
2023-04-26T15:01:57.894Z,9.70
2023-04-26T15:05:00.950Z,9.70
2023-04-26T15:08:03.912Z,9.80
2023-04-26T15:11:05.635Z,9.80
2023-04-26T15:14:07.309Z,10.00
2023-04-26T15:17:09.138Z,10.10
2023-04-26T15:20:11.256Z,10.10
2023-04-26T15:23:13.322Z,10.00
2023-04-26T15:26:15.107Z,10.00
2023-04-26T15:29:16.950Z,9.80
2023-04-26T15:32:18.769Z,9.70
2023-04-26T15:35:20.486Z,9.60
2023-04-26T15:38:22.974Z,9.60
2023-04-26T15:41:24.735Z,9.50
2023-04-26T15:44:26.706Z,9.40
2023-04-26T15:47:28.448Z,9.30
2023-04-26T15:50:30.134Z,9.30
2023-04-26T15:53:31.862Z,9.00
2023-04-26T15:56:33.541Z,8.90
2023-04-26T15:59:35.365Z,8.90
2023-04-26T16:02:37.529Z,8.80
2023-04-26T16:05:39.445Z,8.80
2023-04-26T16:08:41.294Z,8.90
2023-04-26T16:11:43.029Z,8.90
2023-04-26T16:14:44.752Z,8.90
2023-04-26T16:17:46.533Z,8.90
2023-04-26T16:20:49.090Z,8.90
2023-04-26T16:23:51.840Z,9.00
2023-04-26T16:26:53.559Z,9.00
2023-04-26T16:29:55.311Z,8.90
2023-04-26T16:32:57.092Z,8.90
2023-04-26T16:35:59.126Z,8.90
2023-04-26T16:39:00.954Z,8.90
2023-04-26T16:42:03.436Z,8.80
2023-04-26T16:45:06.150Z,8.70
2023-04-26T16:48:07.929Z,8.70
2023-04-26T16:51:09.660Z,8.70
2023-04-26T16:54:11.401Z,8.60
2023-04-26T16:57:18.829Z,8.70
2023-04-26T17:00:20.605Z,8.60
2023-04-26T17:03:23.938Z,8.60
2023-04-26T17:06:26.023Z,8.70
2023-04-26T17:09:27.968Z,8.60
2023-04-26T17:12:29.646Z,8.60
2023-04-26T17:15:33.510Z,8.50
2023-04-26T17:18:36.793Z,8.40
2023-04-26T17:21:38.465Z,8.40
2023-04-26T17:24:40.195Z,8.40
2023-04-26T17:27:41.920Z,8.40
2023-04-26T17:30:43.600Z,8.50
2023-04-26T17:33:45.383Z,8.40
2023-04-26T17:36:47.519Z,8.50
2023-04-26T17:39:49.189Z,8.40
2023-04-26T17:42:50.898Z,8.30
2023-04-26T17:45:52.766Z,8.30
2023-04-26T17:48:55.349Z,8.30
2023-04-26T17:51:56.964Z,8.20
2023-04-26T17:54:58.643Z,8.20
2023-04-26T17:58:00.791Z,8.10
2023-04-26T18:01:02.547Z,8.10
2023-04-26T18:04:04.479Z,8.10
2023-04-26T18:07:06.506Z,8.00
2023-04-26T18:10:08.939Z,7.90
2023-04-26T18:13:11.314Z,7.80
2023-04-26T18:16:14.577Z,7.80
2023-04-26T18:19:16.373Z,7.80
2023-04-26T18:22:18.029Z,7.70
2023-04-26T18:25:19.780Z,7.70
2023-04-26T18:28:22.027Z,7.60
2023-04-26T18:31:23.714Z,7.60
2023-04-26T18:34:25.440Z,7.50
2023-04-26T18:37:27.274Z,7.40
2023-04-26T18:40:28.931Z,7.40
2023-04-26T18:43:30.880Z,7.30
2023-04-26T18:46:32.578Z,7.30
2023-04-26T18:49:34.330Z,7.30
2023-04-26T18:52:36.246Z,7.20
2023-04-26T18:55:37.940Z,7.20
2023-04-26T18:58:39.629Z,7.10
2023-04-26T19:01:41.438Z,6.90
2023-04-26T19:04:43.359Z,6.90
2023-04-26T19:07:45.611Z,6.90
2023-04-26T19:10:47.312Z,6.70
2023-04-26T19:13:48.946Z,6.70
2023-04-26T19:16:50.871Z,6.70
2023-04-26T19:19:52.619Z,6.70
2023-04-26T19:22:54.741Z,6.60
2023-04-26T19:26:06.209Z,6.60
2023-04-26T19:29:07.945Z,6.50
2023-04-26T19:32:09.958Z,6.50
2023-04-26T19:35:11.768Z,6.40
2023-04-26T19:38:13.425Z,6.40
2023-04-26T19:41:15.111Z,6.30
2023-04-26T19:44:16.825Z,6.30
2023-04-26T19:47:18.584Z,6.30
2023-04-26T19:50:20.475Z,6.30
2023-04-26T19:53:22.229Z,6.30
2023-04-26T19:56:24.007Z,6.20
2023-04-26T19:59:25.671Z,6.20
2023-04-26T20:02:27.759Z,6.20
2023-04-26T20:05:29.935Z,6.10
2023-04-26T20:08:31.769Z,6.10
2023-04-26T20:12:00.511Z,6.10
2023-04-26T20:15:02.160Z,6.00
2023-04-26T20:18:04.015Z,6.00
2023-04-26T20:21:06.068Z,6.00
2023-04-26T20:24:08.096Z,6.00
2023-04-26T20:27:09.867Z,5.90
2023-04-26T20:30:12.070Z,5.90
2023-04-26T20:33:13.827Z,5.90
2023-04-26T20:36:15.588Z,5.80
2023-04-26T20:39:17.240Z,5.70
2023-04-26T20:42:18.957Z,5.70
2023-04-26T20:45:20.664Z,5.70
2023-04-26T20:48:22.386Z,5.70
2023-04-26T20:51:24.053Z,5.60
2023-04-26T20:54:26.220Z,5.60
2023-04-26T20:57:28.050Z,5.60
2023-04-26T21:00:29.815Z,5.60
2023-04-26T21:03:32.501Z,5.60
2023-04-26T21:06:34.395Z,5.60
2023-04-26T21:09:36.175Z,5.70
2023-04-26T21:12:38.098Z,5.60
2023-04-26T21:15:39.976Z,5.70
2023-04-26T21:18:41.635Z,5.70
2023-04-26T21:21:43.299Z,5.60
2023-04-26T21:24:44.955Z,5.50
2023-04-26T21:27:46.697Z,5.50
2023-04-26T21:30:48.475Z,5.50
2023-04-26T21:33:50.709Z,5.50
2023-04-26T21:36:53.243Z,5.50
2023-04-26T21:39:54.920Z,5.40
2023-04-26T21:43:04.782Z,5.40
2023-04-26T21:46:08.012Z,5.30
2023-04-26T21:49:10.615Z,5.30
2023-04-26T21:52:12.727Z,5.10
2023-04-26T21:55:14.544Z,5.10
2023-04-26T21:58:16.213Z,5.00
2023-04-26T22:01:18.016Z,5.00
2023-04-26T22:04:19.926Z,5.00
2023-04-26T22:07:22.454Z,5.00
2023-04-26T22:10:24.151Z,5.00
2023-04-26T22:13:26.112Z,4.90
2023-04-26T22:16:27.837Z,4.90
2023-04-26T22:23:54.234Z,4.80
2023-04-26T22:26:55.918Z,4.80
2023-04-26T22:29:57.608Z,4.70
2023-04-26T22:32:59.775Z,4.70
2023-04-26T22:36:02.837Z,4.70
2023-04-26T22:39:04.502Z,4.70
2023-04-26T22:42:06.259Z,4.80
2023-04-26T22:45:09.010Z,4.70
2023-04-26T22:48:10.892Z,4.70
2023-04-26T22:51:12.619Z,4.70
2023-04-26T22:54:14.290Z,4.80
2023-04-26T22:57:16.233Z,4.80
2023-04-26T23:00:18.054Z,4.70
2023-04-26T23:03:19.849Z,4.70
2023-04-26T23:06:21.617Z,4.60
2023-04-26T23:09:23.439Z,4.60
2023-04-26T23:12:25.158Z,4.60
2023-04-26T23:15:27.047Z,4.60
2023-04-26T23:18:28.794Z,4.60
2023-04-26T23:21:30.559Z,4.60
2023-04-26T23:24:32.263Z,4.60
2023-04-26T23:27:34.028Z,4.60
2023-04-26T23:30:36.159Z,4.50
2023-04-26T23:33:37.878Z,4.50
2023-04-26T23:36:39.629Z,4.40
2023-04-26T23:39:41.502Z,4.40
2023-04-26T23:42:43.273Z,4.30
2023-04-26T23:45:47.405Z,4.30
2023-04-26T23:48:55.537Z,4.30
2023-04-26T23:51:57.265Z,4.30
2023-04-26T23:54:58.990Z,4.30
2023-04-26T23:58:01.082Z,4.30
